KBJC/BJC METAR and TAF weather

Enter ICAO airport designator
Station Type Date Time Source
KBJC METAR 2019/02/20 07:11 UTC NOAA

KBJC 200711Z AUTO 24004KT 10SM CLR M10/M12 A2962 RMK AO2 PWINO


Station Type Date Time Source
KBJC Decoded METAR 2019/02/20 07:11 UTC NOAA

Broomfield / Jeffco, CO, United States (KBJC) 39-55N 105-07W
Feb 20, 2019 - 02:11 AM EST / 2019.02.20 0711 UTC
Wind: from the WSW (240 degrees) at 5 MPH (4 KT):0
Visibility: 10 mile(s):0
Sky conditions: clear
Temperature: 14 F (-10 C)
Windchill: 6 F (-14 C):1
Dew Point: 10 F (-12 C)
Relative Humidity: 85%
Pressure (altimeter): 29.62 in. Hg (1003 hPa)
ob: KBJC 200711Z AUTO 24004KT 10SM CLR M10/M12 A2962 RMK AO2 PWINO
cycle: 7

Station Type Date Time Source
KBJC TAF 2019/02/20 06:48 UTC NOAA

TAF KBJC 200545Z 2006/2106 VRB05KT P6SM FEW140 BKN200
FM201000 24006KT P6SM FEW020 SCT120
FM201600 28014G24KT P6SM FEW100
FM210200 29010KT P6SM FEW120 BKN200


Example: see airport list